sensor_id;sensor_type;location;lat;lon;timestamp;P1;durP1;ratioP1;P2;durP2;ratioP2
10717;SDS011;13513;42.700;23.124;2024-03-23T00:52:18;4.73;;;3.90;;
10717;SDS011;13513;42.700;23.124;2024-03-23T00:54:45;7.03;;;3.80;;
10717;SDS011;13513;42.700;23.124;2024-03-23T00:57:12;6.47;;;3.33;;
10717;SDS011;13513;42.700;23.124;2024-03-23T00:59:40;5.83;;;3.13;;
10717;SDS011;13513;42.700;23.124;2024-03-23T01:02:08;5.87;;;3.20;;
10717;SDS011;13513;42.700;23.124;2024-03-23T01:04:35;9.00;;;4.20;;
10717;SDS011;13513;42.700;23.124;2024-03-23T01:07:03;6.40;;;4.10;;
10717;SDS011;13513;42.700;23.124;2024-03-23T01:09:30;7.10;;;4.00;;
10717;SDS011;13513;42.700;23.124;2024-03-23T01:11:58;4.83;;;3.30;;
10717;SDS011;13513;42.700;23.124;2024-03-23T01:14:26;6.97;;;3.27;;
10717;SDS011;13513;42.700;23.124;2024-03-23T01:16:54;6.60;;;4.03;;
10717;SDS011;13513;42.700;23.124;2024-03-23T01:19:21;8.40;;;4.43;;
10717;SDS011;13513;42.700;23.124;2024-03-23T01:21:48;4.33;;;2.90;;
10717;SDS011;13513;42.700;23.124;2024-03-23T01:24:16;5.90;;;3.20;;
10717;SDS011;13513;42.700;23.124;2024-03-23T01:26:43;8.67;;;4.77;;
10717;SDS011;13513;42.700;23.124;2024-03-23T01:29:11;9.60;;;3.73;;
10717;SDS011;13513;42.700;23.124;2024-03-23T01:31:38;7.07;;;3.77;;
10717;SDS011;13513;42.700;23.124;2024-03-23T01:34:05;6.97;;;4.27;;
10717;SDS011;13513;42.700;23.124;2024-03-23T01:36:33;4.70;;;3.50;;
10717;SDS011;13513;42.700;23.124;2024-03-23T01:39:00;10.03;;;3.63;;
10717;SDS011;13513;42.700;23.124;2024-03-23T01:41:28;4.33;;;3.00;;
10717;SDS011;13513;42.700;23.124;2024-03-23T01:43:56;6.27;;;3.90;;
10717;SDS011;13513;42.700;23.124;2024-03-23T01:46:24;6.37;;;3.90;;
10717;SDS011;13513;42.700;23.124;2024-03-23T01:48:52;6.63;;;3.93;;
10717;SDS011;13513;42.700;23.124;2024-03-23T01:51:20;5.47;;;3.57;;
10717;SDS011;13513;42.700;23.124;2024-03-23T01:53:49;5.97;;;4.03;;
10717;SDS011;13513;42.700;23.124;2024-03-23T01:56:17;5.27;;;3.77;;
10717;SDS011;13513;42.700;23.124;2024-03-23T01:58:45;8.20;;;4.93;;
10717;SDS011;13513;42.700;23.124;2024-03-23T02:01:12;8.77;;;4.40;;
10717;SDS011;13513;42.700;23.124;2024-03-23T02:03:40;7.27;;;4.10;;
10717;SDS011;13513;42.700;23.124;2024-03-23T02:06:08;7.00;;;5.13;;
10717;SDS011;13513;42.700;23.124;2024-03-23T02:08:35;6.47;;;4.23;;
10717;SDS011;13513;42.700;23.124;2024-03-23T02:11:03;9.23;;;4.97;;
10717;SDS011;13513;42.700;23.124;2024-03-23T02:13:30;9.67;;;4.60;;
10717;SDS011;13513;42.700;23.124;2024-03-23T02:15:58;6.40;;;3.80;;
10717;SDS011;13513;42.700;23.124;2024-03-23T02:18:26;8.60;;;4.10;;
10717;SDS011;13513;42.700;23.124;2024-03-23T02:20:54;7.53;;;4.07;;
10717;SDS011;13513;42.700;23.124;2024-03-23T02:23:21;6.30;;;3.90;;
10717;SDS011;13513;42.700;23.124;2024-03-23T02:25:50;10.63;;;4.10;;
10717;SDS011;13513;42.700;23.124;2024-03-23T02:28:19;5.27;;;3.50;;
10717;SDS011;13513;42.700;23.124;2024-03-23T02:30:51;5.83;;;4.13;;
10717;SDS011;13513;42.700;23.124;2024-03-23T02:33:19;7.40;;;4.70;;
10717;SDS011;13513;42.700;23.124;2024-03-23T02:35:46;11.23;;;4.57;;
10717;SDS011;13513;42.700;23.124;2024-03-23T02:38:14;18.73;;;8.90;;
10717;SDS011;13513;42.700;23.124;2024-03-23T02:40:41;11.03;;;4.90;;
10717;SDS011;13513;42.700;23.124;2024-03-23T02:43:09;5.03;;;3.77;;
10717;SDS011;13513;42.700;23.124;2024-03-23T02:45:36;8.53;;;3.60;;
10717;SDS011;13513;42.700;23.124;2024-03-23T02:48:04;4.70;;;3.50;;
10717;SDS011;13513;42.700;23.124;2024-03-23T02:50:32;6.27;;;3.87;;
10717;SDS011;13513;42.700;23.124;2024-03-23T02:52:59;7.73;;;4.50;;
10717;SDS011;13513;42.700;23.124;2024-03-23T02:55:27;11.90;;;4.93;;
10717;SDS011;13513;42.700;23.124;2024-03-23T02:57:54;10.83;;;4.20;;
10717;SDS011;13513;42.700;23.124;2024-03-23T03:00:24;7.37;;;4.40;;
10717;SDS011;13513;42.700;23.124;2024-03-23T03:02:51;10.67;;;4.87;;
10717;SDS011;13513;42.700;23.124;2024-03-23T03:05:19;6.33;;;4.00;;
10717;SDS011;13513;42.700;23.124;2024-03-23T03:07:46;10.33;;;4.40;;
10717;SDS011;13513;42.700;23.124;2024-03-23T03:10:14;14.83;;;8.97;;
10717;SDS011;13513;42.700;23.124;2024-03-23T03:12:41;9.63;;;4.70;;
10717;SDS011;13513;42.700;23.124;2024-03-23T03:15:09;13.20;;;4.87;;
10717;SDS011;13513;42.700;23.124;2024-03-23T03:17:36;7.13;;;4.40;;
10717;SDS011;13513;42.700;23.124;2024-03-23T03:20:04;7.07;;;4.23;;
10717;SDS011;13513;42.700;23.124;2024-03-23T03:22:32;10.57;;;5.87;;
10717;SDS011;13513;42.700;23.124;2024-03-23T03:25:00;6.90;;;4.57;;
10717;SDS011;13513;42.700;23.124;2024-03-23T03:27:28;5.57;;;4.20;;
10717;SDS011;13513;42.700;23.124;2024-03-23T03:29:55;7.13;;;5.37;;
10717;SDS011;13513;42.700;23.124;2024-03-23T03:32:23;8.13;;;5.20;;
10717;SDS011;13513;42.700;23.124;2024-03-23T03:34:51;10.13;;;4.67;;
10717;SDS011;13513;42.700;23.124;2024-03-23T03:37:18;8.67;;;5.07;;
10717;SDS011;13513;42.700;23.124;2024-03-23T03:39:46;5.63;;;4.43;;
10717;SDS011;13513;42.700;23.124;2024-03-23T03:42:14;9.00;;;5.13;;
10717;SDS011;13513;42.700;23.124;2024-03-23T03:44:42;14.17;;;5.37;;
10717;SDS011;13513;42.700;23.124;2024-03-23T03:47:09;15.83;;;5.60;;
10717;SDS011;13513;42.700;23.124;2024-03-23T03:49:37;10.17;;;5.30;;
10717;SDS011;13513;42.700;23.124;2024-03-23T03:52:04;14.50;;;5.40;;
10717;SDS011;13513;42.700;23.124;2024-03-23T03:54:32;15.03;;;5.50;;
10717;SDS011;13513;42.700;23.124;2024-03-23T03:57:00;16.57;;;6.57;;
10717;SDS011;13513;42.700;23.124;2024-03-23T03:59:29;18.87;;;6.67;;
10717;SDS011;13513;42.700;23.124;2024-03-23T04:01:56;12.50;;;5.40;;
10717;SDS011;13513;42.700;23.124;2024-03-23T04:04:23;8.80;;;5.77;;
10717;SDS011;13513;42.700;23.124;2024-03-23T04:06:57;15.67;;;6.10;;
10717;SDS011;13513;42.700;23.124;2024-03-23T04:09:21;12.43;;;5.57;;
10717;SDS011;13513;42.700;23.124;2024-03-23T04:11:49;14.97;;;6.27;;
10717;SDS011;13513;42.700;23.124;2024-03-23T04:14:16;10.23;;;5.43;;
10717;SDS011;13513;42.700;23.124;2024-03-23T04:16:43;14.63;;;6.00;;
10717;SDS011;13513;42.700;23.124;2024-03-23T04:19:11;16.17;;;6.33;;
10717;SDS011;13513;42.700;23.124;2024-03-23T04:21:40;16.93;;;6.43;;
10717;SDS011;13513;42.700;23.124;2024-03-23T04:24:08;14.07;;;6.03;;
10717;SDS011;13513;42.700;23.124;2024-03-23T04:26:47;15.27;;;5.40;;
10717;SDS011;13513;42.700;23.124;2024-03-23T04:29:11;12.03;;;5.83;;
10717;SDS011;13513;42.700;23.124;2024-03-23T04:31:39;18.10;;;6.80;;
10717;SDS011;13513;42.700;23.124;2024-03-23T04:34:06;12.23;;;5.27;;
10717;SDS011;13513;42.700;23.124;2024-03-23T04:36:34;13.30;;;5.70;;
10717;SDS011;13513;42.700;23.124;2024-03-23T04:39:02;16.80;;;6.40;;
10717;SDS011;13513;42.700;23.124;2024-03-23T04:41:29;11.37;;;5.13;;
10717;SDS011;13513;42.700;23.124;2024-03-23T04:43:57;16.73;;;6.10;;
10717;SDS011;13513;42.700;23.124;2024-03-23T04:46:25;12.70;;;6.20;;
10717;SDS011;13513;42.700;23.124;2024-03-23T04:48:54;11.40;;;6.83;;
10717;SDS011;13513;42.700;23.124;2024-03-23T04:51:25;13.90;;;6.40;;
10717;SDS011;13513;42.700;23.124;2024-03-23T04:53:53;16.57;;;6.33;;
10717;SDS011;13513;42.700;23.124;2024-03-23T04:56:20;14.77;;;6.40;;
10717;SDS011;13513;42.700;23.124;2024-03-23T04:58:48;16.40;;;6.50;;
10717;SDS011;13513;42.700;23.124;2024-03-23T05:01:15;14.10;;;6.80;;
10717;SDS011;13513;42.700;23.124;2024-03-23T05:03:43;11.30;;;6.20;;
10717;SDS011;13513;42.700;23.124;2024-03-23T05:06:10;14.83;;;6.63;;
10717;SDS011;13513;42.700;23.124;2024-03-23T05:08:38;12.73;;;6.53;;
10717;SDS011;13513;42.700;23.124;2024-03-23T05:11:05;12.73;;;6.90;;
10717;SDS011;13513;42.700;23.124;2024-03-23T05:13:33;11.37;;;6.30;;
10717;SDS011;13513;42.700;23.124;2024-03-23T05:16:00;12.23;;;6.57;;
10717;SDS011;13513;42.700;23.124;2024-03-23T05:18:28;14.40;;;6.50;;
10717;SDS011;13513;42.700;23.124;2024-03-23T05:20:56;13.23;;;6.87;;
10717;SDS011;13513;42.700;23.124;2024-03-23T05:23:24;11.43;;;6.73;;
10717;SDS011;13513;42.700;23.124;2024-03-23T05:25:53;11.10;;;7.07;;
10717;SDS011;13513;42.700;23.124;2024-03-23T05:28:21;10.93;;;6.53;;
10717;SDS011;13513;42.700;23.124;2024-03-23T05:30:52;11.12;;;6.37;;
10717;SDS011;13513;42.700;23.124;2024-03-23T05:33:21;11.83;;;6.40;;
10717;SDS011;13513;42.700;23.124;2024-03-23T05:35:59;10.53;;;6.67;;
10717;SDS011;13513;42.700;23.124;2024-03-23T05:38:30;12.23;;;7.28;;
10717;SDS011;13513;42.700;23.124;2024-03-23T05:40:58;13.08;;;6.53;;
10717;SDS011;13513;42.700;23.124;2024-03-23T05:43:27;9.28;;;6.35;;
10717;SDS011;13513;42.700;23.124;2024-03-23T05:45:56;9.75;;;6.58;;
10717;SDS011;13513;42.700;23.124;2024-03-23T05:48:26;10.68;;;7.42;;
10717;SDS011;13513;42.700;23.124;2024-03-23T05:50:54;12.53;;;7.87;;
10717;SDS011;13513;42.700;23.124;2024-03-23T05:53:21;9.93;;;6.83;;
10717;SDS011;13513;42.700;23.124;2024-03-23T05:55:50;12.47;;;7.90;;
10717;SDS011;13513;42.700;23.124;2024-03-23T05:58:19;13.68;;;7.33;;
10717;SDS011;13513;42.700;23.124;2024-03-23T06:00:47;12.65;;;6.95;;
10717;SDS011;13513;42.700;23.124;2024-03-23T06:03:14;12.15;;;7.00;;
10717;SDS011;13513;42.700;23.124;2024-03-23T06:05:42;10.25;;;6.78;;
10717;SDS011;13513;42.700;23.124;2024-03-23T06:08:10;11.03;;;6.65;;
10717;SDS011;13513;42.700;23.124;2024-03-23T06:10:38;12.37;;;6.75;;
10717;SDS011;13513;42.700;23.124;2024-03-23T06:13:06;17.00;;;9.63;;
10717;SDS011;13513;42.700;23.124;2024-03-23T06:15:33;12.75;;;7.70;;
10717;SDS011;13513;42.700;23.124;2024-03-23T06:18:03;15.40;;;7.87;;
10717;SDS011;13513;42.700;23.124;2024-03-23T06:20:31;15.83;;;6.65;;
10717;SDS011;13513;42.700;23.124;2024-03-23T06:22:58;12.25;;;6.08;;
10717;SDS011;13513;42.700;23.124;2024-03-23T06:25:27;9.13;;;6.10;;
10717;SDS011;13513;42.700;23.124;2024-03-23T06:27:55;8.78;;;6.00;;
10717;SDS011;13513;42.700;23.124;2024-03-23T06:30:24;8.95;;;6.33;;
10717;SDS011;13513;42.700;23.124;2024-03-23T06:32:52;12.68;;;6.37;;
10717;SDS011;13513;42.700;23.124;2024-03-23T06:35:19;11.63;;;5.67;;
10717;SDS011;13513;42.700;23.124;2024-03-23T06:37:47;10.28;;;5.97;;
10717;SDS011;13513;42.700;23.124;2024-03-23T06:40:14;8.40;;;5.87;;
10717;SDS011;13513;42.700;23.124;2024-03-23T06:42:42;9.50;;;6.42;;
10717;SDS011;13513;42.700;23.124;2024-03-23T06:45:09;9.90;;;5.87;;
10717;SDS011;13513;42.700;23.124;2024-03-23T06:47:37;9.68;;;6.58;;
10717;SDS011;13513;42.700;23.124;2024-03-23T06:50:05;8.35;;;6.03;;
10717;SDS011;13513;42.700;23.124;2024-03-23T06:52:33;7.30;;;5.47;;
10717;SDS011;13513;42.700;23.124;2024-03-23T06:55:01;11.55;;;6.12;;
10717;SDS011;13513;42.700;23.124;2024-03-23T06:57:30;8.50;;;6.22;;
10717;SDS011;13513;42.700;23.124;2024-03-23T06:59:58;12.13;;;6.87;;
10717;SDS011;13513;42.700;23.124;2024-03-23T07:02:25;9.50;;;6.53;;
10717;SDS011;13513;42.700;23.124;2024-03-23T07:04:53;11.80;;;5.97;;
10717;SDS011;13513;42.700;23.124;2024-03-23T07:07:21;16.37;;;6.47;;
10717;SDS011;13513;42.700;23.124;2024-03-23T07:09:49;7.80;;;6.37;;
10717;SDS011;13513;42.700;23.124;2024-03-23T07:12:18;8.85;;;5.97;;
10717;SDS011;13513;42.700;23.124;2024-03-23T07:14:46;7.80;;;5.85;;
10717;SDS011;13513;42.700;23.124;2024-03-23T07:17:14;8.08;;;5.83;;
10717;SDS011;13513;42.700;23.124;2024-03-23T07:19:41;13.48;;;6.03;;
10717;SDS011;13513;42.700;23.124;2024-03-23T07:22:09;9.50;;;5.87;;
10717;SDS011;13513;42.700;23.124;2024-03-23T07:24:36;9.83;;;6.50;;
10717;SDS011;13513;42.700;23.124;2024-03-23T07:27:05;8.70;;;5.85;;
10717;SDS011;13513;42.700;23.124;2024-03-23T07:29:34;7.58;;;5.75;;
10717;SDS011;13513;42.700;23.124;2024-03-23T07:32:02;10.98;;;6.40;;
10717;SDS011;13513;42.700;23.124;2024-03-23T07:34:30;10.53;;;7.08;;
10717;SDS011;13513;42.700;23.124;2024-03-23T07:36:57;11.10;;;6.47;;
10717;SDS011;13513;42.700;23.124;2024-03-23T07:39:25;13.32;;;7.17;;
10717;SDS011;13513;42.700;23.124;2024-03-23T07:41:53;7.50;;;6.37;;
10717;SDS011;13513;42.700;23.124;2024-03-23T07:44:20;10.63;;;7.15;;
10717;SDS011;13513;42.700;23.124;2024-03-23T07:46:48;9.50;;;6.87;;
10717;SDS011;13513;42.700;23.124;2024-03-23T07:49:15;14.00;;;8.28;;
10717;SDS011;13513;42.700;23.124;2024-03-23T07:51:43;14.35;;;7.60;;
10717;SDS011;13513;42.700;23.124;2024-03-23T07:54:11;13.55;;;7.60;;
10717;SDS011;13513;42.700;23.124;2024-03-23T07:56:38;13.78;;;7.55;;
10717;SDS011;13513;42.700;23.124;2024-03-23T07:59:06;17.70;;;9.00;;
10717;SDS011;13513;42.700;23.124;2024-03-23T08:01:33;11.57;;;6.92;;
10717;SDS011;13513;42.700;23.124;2024-03-23T08:04:01;12.47;;;7.78;;
10717;SDS011;13513;42.700;23.124;2024-03-23T08:06:28;15.53;;;6.35;;
10717;SDS011;13513;42.700;23.124;2024-03-23T08:08:56;13.68;;;7.75;;
10717;SDS011;13513;42.700;23.124;2024-03-23T08:11:28;12.30;;;7.60;;
10717;SDS011;13513;42.700;23.124;2024-03-23T08:13:57;10.08;;;7.37;;
10717;SDS011;13513;42.700;23.124;2024-03-23T08:16:25;15.38;;;8.70;;
10717;SDS011;13513;42.700;23.124;2024-03-23T08:18:53;9.90;;;7.37;;
10717;SDS011;13513;42.700;23.124;2024-03-23T08:21:24;12.03;;;6.95;;
10717;SDS011;13513;42.700;23.124;2024-03-23T08:23:52;20.85;;;10.85;;
10717;SDS011;13513;42.700;23.124;2024-03-23T08:26:19;12.65;;;7.20;;
10717;SDS011;13513;42.700;23.124;2024-03-23T08:28:46;11.60;;;6.55;;
10717;SDS011;13513;42.700;23.124;2024-03-23T08:31:14;11.20;;;6.45;;
10717;SDS011;13513;42.700;23.124;2024-03-23T08:33:41;12.73;;;6.62;;
10717;SDS011;13513;42.700;23.124;2024-03-23T08:36:10;16.70;;;8.25;;
10717;SDS011;13513;42.700;23.124;2024-03-23T08:38:39;13.65;;;8.05;;
10717;SDS011;13513;42.700;23.124;2024-03-23T08:41:08;10.72;;;7.15;;
10717;SDS011;13513;42.700;23.124;2024-03-23T08:43:37;13.20;;;6.95;;
10717;SDS011;13513;42.700;23.124;2024-03-23T08:46:07;13.53;;;7.08;;
10717;SDS011;13513;42.700;23.124;2024-03-23T08:48:37;11.73;;;6.47;;
10717;SDS011;13513;42.700;23.124;2024-03-23T08:51:08;10.58;;;5.62;;
10717;SDS011;13513;42.700;23.124;2024-03-23T08:53:36;11.08;;;5.45;;
10717;SDS011;13513;42.700;23.124;2024-03-23T08:56:05;15.03;;;7.72;;
10717;SDS011;13513;42.700;23.124;2024-03-23T08:58:33;12.18;;;7.58;;
10717;SDS011;13513;42.700;23.124;2024-03-23T09:01:12;15.20;;;6.95;;
10717;SDS011;13513;42.700;23.124;2024-03-23T09:03:40;13.38;;;6.97;;
10717;SDS011;13513;42.700;23.124;2024-03-23T09:06:11;13.03;;;6.85;;
10717;SDS011;13513;42.700;23.124;2024-03-23T09:08:38;19.32;;;6.33;;
10717;SDS011;13513;42.700;23.124;2024-03-23T09:11:10;11.20;;;4.90;;
10717;SDS011;13513;42.700;23.124;2024-03-23T09:13:38;13.15;;;5.83;;
10717;SDS011;13513;42.700;23.124;2024-03-23T09:16:08;16.82;;;6.35;;
10717;SDS011;13513;42.700;23.124;2024-03-23T09:18:36;11.97;;;4.37;;
10717;SDS011;13513;42.700;23.124;2024-03-23T09:21:11;10.38;;;4.30;;
10717;SDS011;13513;42.700;23.124;2024-03-23T09:23:42;10.23;;;4.35;;
10717;SDS011;13513;42.700;23.124;2024-03-23T09:26:12;15.00;;;4.30;;
10717;SDS011;13513;42.700;23.124;2024-03-23T09:28:40;12.55;;;4.12;;
10717;SDS011;13513;42.700;23.124;2024-03-23T09:31:08;8.78;;;3.65;;
10717;SDS011;13513;42.700;23.124;2024-03-23T09:33:38;5.55;;;3.30;;
10717;SDS011;13513;42.700;23.124;2024-03-23T09:36:06;5.50;;;3.40;;
10717;SDS011;13513;42.700;23.124;2024-03-23T09:38:34;6.92;;;3.50;;
10717;SDS011;13513;42.700;23.124;2024-03-23T09:41:06;7.72;;;3.15;;
10717;SDS011;13513;42.700;23.124;2024-03-23T09:43:35;5.80;;;3.42;;
10717;SDS011;13513;42.700;23.124;2024-03-23T09:46:03;7.78;;;3.50;;
10717;SDS011;13513;42.700;23.124;2024-03-23T09:48:32;9.65;;;3.30;;
10717;SDS011;13513;42.700;23.124;2024-03-23T09:51:00;4.67;;;3.30;;
10717;SDS011;13513;42.700;23.124;2024-03-23T09:53:30;5.37;;;3.65;;
10717;SDS011;13513;42.700;23.124;2024-03-23T09:55:58;6.40;;;3.02;;
10717;SDS011;13513;42.700;23.124;2024-03-23T09:58:26;9.50;;;3.35;;
10717;SDS011;13513;42.700;23.124;2024-03-23T10:00:53;3.85;;;2.92;;
10717;SDS011;13513;42.700;23.124;2024-03-23T10:03:21;4.20;;;3.10;;
10717;SDS011;13513;42.700;23.124;2024-03-23T10:05:58;4.65;;;3.20;;
10717;SDS011;13513;42.700;23.124;2024-03-23T10:08:30;5.47;;;3.05;;
10717;SDS011;13513;42.700;23.124;2024-03-23T10:10:58;6.60;;;3.65;;
10717;SDS011;13513;42.700;23.124;2024-03-23T10:13:29;9.15;;;3.60;;
10717;SDS011;13513;42.700;23.124;2024-03-23T10:15:57;12.35;;;7.67;;
10717;SDS011;13513;42.700;23.124;2024-03-23T10:18:25;7.53;;;3.20;;
10717;SDS011;13513;42.700;23.124;2024-03-23T10:23:38;30.27;;;6.58;;
10717;SDS011;13513;42.700;23.124;2024-03-23T10:26:17;4.58;;;2.90;;
10717;SDS011;13513;42.700;23.124;2024-03-23T10:29:00;5.90;;;3.22;;
10717;SDS011;13513;42.700;23.124;2024-03-23T10:31:22;3.83;;;2.77;;
10717;SDS011;13513;42.700;23.124;2024-03-23T10:33:50;7.00;;;2.98;;
10717;SDS011;13513;42.700;23.124;2024-03-23T10:36:20;3.33;;;2.72;;
10717;SDS011;13513;42.700;23.124;2024-03-23T10:38:54;5.35;;;2.60;;
10717;SDS011;13513;42.700;23.124;2024-03-23T10:41:18;6.92;;;2.80;;
10717;SDS011;13513;42.700;23.124;2024-03-23T10:43:47;4.08;;;2.35;;
10717;SDS011;13513;42.700;23.124;2024-03-23T10:46:15;3.05;;;2.45;;
10717;SDS011;13513;42.700;23.124;2024-03-23T10:48:43;4.33;;;2.30;;
10717;SDS011;13513;42.700;23.124;2024-03-23T10:51:11;4.65;;;2.60;;
10717;SDS011;13513;42.700;23.124;2024-03-23T10:53:40;35.90;;;4.03;;
10717;SDS011;13513;42.700;23.124;2024-03-23T10:56:08;4.17;;;2.90;;
10717;SDS011;13513;42.700;23.124;2024-03-23T10:58:41;3.62;;;2.50;;
10717;SDS011;13513;42.700;23.124;2024-03-23T11:01:11;3.77;;;2.52;;
10717;SDS011;13513;42.700;23.124;2024-03-23T11:03:44;6.92;;;2.83;;
10717;SDS011;13513;42.700;23.124;2024-03-23T11:06:35;3.85;;;2.90;;
10717;SDS011;13513;42.700;23.124;2024-03-23T11:08:55;4.75;;;2.77;;
10717;SDS011;13513;42.700;23.124;2024-03-23T11:11:22;4.62;;;2.58;;
10717;SDS011;13513;42.700;23.124;2024-03-23T11:13:52;5.78;;;2.45;;
10717;SDS011;13513;42.700;23.124;2024-03-23T11:16:23;3.12;;;2.20;;
10717;SDS011;13513;42.700;23.124;2024-03-23T11:22:03;5.28;;;2.10;;
10717;SDS011;13513;42.700;23.124;2024-03-23T11:24:32;5.22;;;2.20;;
10717;SDS011;13513;42.700;23.124;2024-03-23T11:27:00;6.20;;;2.17;;
10717;SDS011;13513;42.700;23.124;2024-03-23T11:29:29;3.40;;;1.95;;
10717;SDS011;13513;42.700;23.124;2024-03-23T11:31:57;3.05;;;1.92;;
10717;SDS011;13513;42.700;23.124;2024-03-23T11:34:26;3.35;;;2.20;;
10717;SDS011;13513;42.700;23.124;2024-03-23T11:37:03;3.22;;;2.22;;
10717;SDS011;13513;42.700;23.124;2024-03-23T11:39:32;5.15;;;2.92;;
10717;SDS011;13513;42.700;23.124;2024-03-23T11:41:59;2.55;;;2.10;;
10717;SDS011;13513;42.700;23.124;2024-03-23T11:44:26;4.20;;;2.10;;
10717;SDS011;13513;42.700;23.124;2024-03-23T11:46:54;2.25;;;2.02;;
10717;SDS011;13513;42.700;23.124;2024-03-23T11:49:28;2.15;;;1.82;;
10717;SDS011;13513;42.700;23.124;2024-03-23T11:51:56;1.62;;;1.47;;
10717;SDS011;13513;42.700;23.124;2024-03-23T11:54:24;2.27;;;1.67;;
10717;SDS011;13513;42.700;23.124;2024-03-23T11:56:59;2.20;;;1.62;;
10717;SDS011;13513;42.700;23.124;2024-03-23T11:59:36;2.00;;;1.60;;
10717;SDS011;13513;42.700;23.124;2024-03-23T12:02:08;4.65;;;2.30;;
10717;SDS011;13513;42.700;23.124;2024-03-23T12:04:39;4.08;;;1.80;;
10717;SDS011;13513;42.700;23.124;2024-03-23T12:09:45;4.97;;;2.05;;
10717;SDS011;13513;42.700;23.124;2024-03-23T12:12:14;5.70;;;1.37;;
10717;SDS011;13513;42.700;23.124;2024-03-23T12:14:44;3.35;;;1.77;;
10717;SDS011;13513;42.700;23.124;2024-03-23T12:17:14;2.45;;;1.70;;
10717;SDS011;13513;42.700;23.124;2024-03-23T12:19:41;2.42;;;1.60;;
10717;SDS011;13513;42.700;23.124;2024-03-23T12:22:11;5.08;;;1.70;;
10717;SDS011;13513;42.700;23.124;2024-03-23T12:24:38;1.10;;;1.00;;
10717;SDS011;13513;42.700;23.124;2024-03-23T12:27:08;3.17;;;2.10;;
10717;SDS011;13513;42.700;23.124;2024-03-23T12:29:35;6.30;;;1.50;;
10717;SDS011;13513;42.700;23.124;2024-03-23T12:32:04;2.67;;;1.20;;
10717;SDS011;13513;42.700;23.124;2024-03-23T12:34:32;3.52;;;1.27;;
10717;SDS011;13513;42.700;23.124;2024-03-23T12:37:00;3.40;;;1.50;;
10717;SDS011;13513;42.700;23.124;2024-03-23T12:39:28;1.62;;;1.37;;
10717;SDS011;13513;42.700;23.124;2024-03-23T12:41:56;1.82;;;1.40;;
10717;SDS011;13513;42.700;23.124;2024-03-23T12:44:23;2.20;;;1.67;;
10717;SDS011;13513;42.700;23.124;2024-03-23T12:46:51;3.22;;;1.60;;
10717;SDS011;13513;42.700;23.124;2024-03-23T12:49:18;4.20;;;1.75;;
10717;SDS011;13513;42.700;23.124;2024-03-23T12:51:48;2.40;;;1.80;;
10717;SDS011;13513;42.700;23.124;2024-03-23T12:54:16;3.17;;;1.80;;
10717;SDS011;13513;42.700;23.124;2024-03-23T12:56:45;5.47;;;2.08;;
10717;SDS011;13513;42.700;23.124;2024-03-23T12:59:12;2.92;;;2.20;;
10717;SDS011;13513;42.700;23.124;2024-03-23T13:01:42;3.35;;;2.10;;
10717;SDS011;13513;42.700;23.124;2024-03-23T13:04:09;7.12;;;2.20;;
10717;SDS011;13513;42.700;23.124;2024-03-23T13:06:37;4.55;;;2.50;;
10717;SDS011;13513;42.700;23.124;2024-03-23T13:09:05;2.98;;;2.02;;
10717;SDS011;13513;42.700;23.124;2024-03-23T13:11:33;21.37;;;3.35;;
10717;SDS011;13513;42.700;23.124;2024-03-23T13:14:00;2.70;;;2.20;;
10717;SDS011;13513;42.700;23.124;2024-03-23T13:16:29;4.42;;;2.42;;
10717;SDS011;13513;42.700;23.124;2024-03-23T13:18:57;7.03;;;2.80;;
10717;SDS011;13513;42.700;23.124;2024-03-23T13:21:26;5.35;;;2.08;;
10717;SDS011;13513;42.700;23.124;2024-03-23T13:23:54;3.92;;;2.35;;
10717;SDS011;13513;42.700;23.124;2024-03-23T13:26:21;5.12;;;2.30;;
10717;SDS011;13513;42.700;23.124;2024-03-23T13:28:49;2.70;;;2.25;;
10717;SDS011;13513;42.700;23.124;2024-03-23T13:31:16;4.60;;;2.47;;
10717;SDS011;13513;42.700;23.124;2024-03-23T13:33:44;3.33;;;2.52;;
10717;SDS011;13513;42.700;23.124;2024-03-23T13:36:11;3.00;;;2.58;;
10717;SDS011;13513;42.700;23.124;2024-03-23T13:38:39;5.50;;;2.70;;
10717;SDS011;13513;42.700;23.124;2024-03-23T13:41:06;6.65;;;2.60;;
10717;SDS011;13513;42.700;23.124;2024-03-23T13:43:35;5.55;;;2.70;;
10717;SDS011;13513;42.700;23.124;2024-03-23T13:46:03;4.10;;;2.67;;
10717;SDS011;13513;42.700;23.124;2024-03-23T13:48:30;3.80;;;2.50;;
10717;SDS011;13513;42.700;23.124;2024-03-23T13:51:06;3.67;;;2.52;;
10717;SDS011;13513;42.700;23.124;2024-03-23T13:53:30;3.95;;;2.72;;
10717;SDS011;13513;42.700;23.124;2024-03-23T13:56:01;3.37;;;2.70;;
10717;SDS011;13513;42.700;23.124;2024-03-23T13:58:29;3.90;;;2.50;;
10717;SDS011;13513;42.700;23.124;2024-03-23T14:00:56;3.10;;;2.65;;
10717;SDS011;13513;42.700;23.124;2024-03-23T14:03:24;3.62;;;2.58;;
10717;SDS011;13513;42.700;23.124;2024-03-23T14:05:53;4.00;;;2.37;;
10717;SDS011;13513;42.700;23.124;2024-03-23T14:08:23;3.98;;;2.50;;
10717;SDS011;13513;42.700;23.124;2024-03-23T14:10:51;4.12;;;2.40;;
10717;SDS011;13513;42.700;23.124;2024-03-23T14:13:19;5.17;;;2.40;;
10717;SDS011;13513;42.700;23.124;2024-03-23T14:15:46;4.50;;;2.45;;
10717;SDS011;13513;42.700;23.124;2024-03-23T14:18:16;4.95;;;2.80;;
10717;SDS011;13513;42.700;23.124;2024-03-23T14:20:43;4.10;;;2.30;;
10717;SDS011;13513;42.700;23.124;2024-03-23T14:23:11;6.53;;;2.40;;
10717;SDS011;13513;42.700;23.124;2024-03-23T14:25:38;5.28;;;2.47;;
10717;SDS011;13513;42.700;23.124;2024-03-23T14:28:06;3.33;;;2.60;;
10717;SDS011;13513;42.700;23.124;2024-03-23T14:30:35;5.83;;;2.87;;
10717;SDS011;13513;42.700;23.124;2024-03-23T14:33:02;6.10;;;2.50;;
10717;SDS011;13513;42.700;23.124;2024-03-23T14:35:30;3.50;;;2.35;;
10717;SDS011;13513;42.700;23.124;2024-03-23T14:37:58;6.75;;;2.72;;
10717;SDS011;13513;42.700;23.124;2024-03-23T14:40:26;2.70;;;2.17;;
10717;SDS011;13513;42.700;23.124;2024-03-23T14:42:54;2.87;;;2.25;;
10717;SDS011;13513;42.700;23.124;2024-03-23T14:45:22;4.17;;;2.58;;
10717;SDS011;13513;42.700;23.124;2024-03-23T14:47:53;5.53;;;2.58;;
10717;SDS011;13513;42.700;23.124;2024-03-23T14:50:20;5.90;;;2.72;;
10717;SDS011;13513;42.700;23.124;2024-03-23T14:52:48;6.10;;;3.17;;
10717;SDS011;13513;42.700;23.124;2024-03-23T14:55:16;3.83;;;2.45;;
10717;SDS011;13513;42.700;23.124;2024-03-23T14:57:45;5.92;;;2.58;;
10717;SDS011;13513;42.700;23.124;2024-03-23T15:00:12;3.92;;;2.50;;
10717;SDS011;13513;42.700;23.124;2024-03-23T15:02:40;5.03;;;3.00;;
10717;SDS011;13513;42.700;23.124;2024-03-23T15:05:08;6.30;;;2.77;;
10717;SDS011;13513;42.700;23.124;2024-03-23T15:07:36;5.08;;;2.47;;
10717;SDS011;13513;42.700;23.124;2024-03-23T15:10:05;5.55;;;2.60;;
10717;SDS011;13513;42.700;23.124;2024-03-23T15:12:33;5.35;;;2.87;;
10717;SDS011;13513;42.700;23.124;2024-03-23T15:15:01;11.10;;;3.00;;
10717;SDS011;13513;42.700;23.124;2024-03-23T15:17:28;6.42;;;2.83;;
10717;SDS011;13513;42.700;23.124;2024-03-23T15:19:57;5.65;;;2.72;;
10717;SDS011;13513;42.700;23.124;2024-03-23T15:22:25;8.10;;;3.10;;
10717;SDS011;13513;42.700;23.124;2024-03-23T15:24:52;5.95;;;2.77;;
10717;SDS011;13513;42.700;23.124;2024-03-23T15:27:20;3.80;;;2.52;;
10717;SDS011;13513;42.700;23.124;2024-03-23T15:29:47;4.90;;;2.60;;
10717;SDS011;13513;42.700;23.124;2024-03-23T15:32:15;3.55;;;2.67;;
10717;SDS011;13513;42.700;23.124;2024-03-23T15:34:43;3.55;;;3.05;;